Easton, ME (04740)

4:07 PM EDT on September 04, 2015 (GMT -0400)
APRSWXNET | | Change Station
CLOSE
Current Station
Personal Weather Station
Location: Presque Isle, ME
Elevation: 649 ft
Nearby Weather Stations

Elev 649 ft 46.69 °N, 67.99 °W | Updated 32 minutes ago

Clear
Clear
70 °F
Feels Like 70 °F
N
2
Wind Variable Wind from NW
Gusts 7.0 mph

Today
High -- | Low -- °F
--% Chance of Precip.
Yesterday
High -- | Low -- °F
Precip. -- in
5:55 AM 7:05 PM
Waning Gibbous, 56% visible
Pressure 30.21 in
Visibility 10.0 miles
Clouds Clear
Dew Point 47 °F
Humidity 44%
Rainfall in
Snow Depth Not available.
UV 3 out of 12
Pollen 7.00 out of 12
Air Quality Not available.
Flu Activity Not available.
METAR KPQI 041955Z AUTO 36004KT 10SM CLR 21/06 A3021 RMK AO1
Pressure 30.21 in
Visibility 10.0 miles
Clouds Clear
Dew Point 47 °F
Humidity 44%
Rainfall in
Snow Depth Not available.
UV 3 out of 12
Pollen 7.00 out of 12
Air Quality Not available.
Flu Activity Not available.
METAR KPQI 041955Z AUTO 36004KT 10SM CLR 21/06 A3021 RMK AO1

10-Day Weather Forecast

×

Almanac

Astronomy

Sep. 04, 2015 Rise Set
Actual Time
Civil Twilight
Nautical Twilight
Astronomical Twilight
Moon
Length of Visible Light
Length of Day
Tomorrow will be .
, % of the Moon is Illuminated

Today's Extremes

State Highs State Lows

Community

WunderPhotos

Upload Photos

1,852,272 photos uploaded!

WunderBlogs® & News

Nearby

Air Quality

  Air Quality AQ Index Pollutant
Not available.

Snow Depth

Station Depth Elevation

Earthquake Activity

City Distance Mag. Time & Date
Minimum magnitude displayed is 2.5.

Coastal Water Temperatures

Place Temperature

Stations

Nearby Weather Stations

Station Location Temp. Windchill Dew Point Humidity Wind Precip. Elev Updated Type